sensor_id;sensor_type;location;lat;lon;timestamp;P1;durP1;ratioP1;P2;durP2;ratioP2
46721;SDS011;32455;43.430;23.136;2023-08-08T00:01:00;0.80;;;0.80;;
46721;SDS011;32455;43.430;23.136;2023-08-08T00:03:45;2.33;;;0.93;;
46721;SDS011;32455;43.430;23.136;2023-08-08T00:06:30;1.00;;;0.90;;
46721;SDS011;32455;43.430;23.136;2023-08-08T00:09:16;0.90;;;0.90;;
46721;SDS011;32455;43.430;23.136;2023-08-08T00:12:01;1.77;;;1.23;;
46721;SDS011;32455;43.430;23.136;2023-08-08T00:14:47;0.93;;;0.90;;
46721;SDS011;32455;43.430;23.136;2023-08-08T00:17:32;1.60;;;0.98;;
46721;SDS011;32455;43.430;23.136;2023-08-08T00:20:17;1.20;;;1.10;;
46721;SDS011;32455;43.430;23.136;2023-08-08T00:23:03;7.97;;;1.20;;
46721;SDS011;32455;43.430;23.136;2023-08-08T00:25:49;2.17;;;1.10;;
46721;SDS011;32455;43.430;23.136;2023-08-08T00:28:35;1.42;;;1.33;;
46721;SDS011;32455;43.430;23.136;2023-08-08T00:31:20;1.45;;;1.30;;
46721;SDS011;32455;43.430;23.136;2023-08-08T00:34:06;2.33;;;1.20;;
46721;SDS011;32455;43.430;23.136;2023-08-08T00:36:52;3.00;;;1.17;;
46721;SDS011;32455;43.430;23.136;2023-08-08T00:39:37;1.83;;;1.20;;
46721;SDS011;32455;43.430;23.136;2023-08-08T00:42:23;1.30;;;1.08;;
46721;SDS011;32455;43.430;23.136;2023-08-08T00:45:08;1.60;;;1.10;;
46721;SDS011;32455;43.430;23.136;2023-08-08T00:47:53;1.35;;;1.25;;
46721;SDS011;32455;43.430;23.136;2023-08-08T00:50:42;1.10;;;1.10;;
46721;SDS011;32455;43.430;23.136;2023-08-08T00:53:28;1.00;;;1.00;;
46721;SDS011;32455;43.430;23.136;2023-08-08T00:56:16;3.20;;;1.30;;
46721;SDS011;32455;43.430;23.136;2023-08-08T00:59:02;1.08;;;1.08;;
46721;SDS011;32455;43.430;23.136;2023-08-08T01:01:48;1.42;;;1.20;;
46721;SDS011;32455;43.430;23.136;2023-08-08T01:04:34;4.70;;;1.55;;
46721;SDS011;32455;43.430;23.136;2023-08-08T01:10:37;1.13;;;1.05;;
46721;SDS011;32455;43.430;23.136;2023-08-08T01:13:24;1.63;;;1.10;;
46721;SDS011;32455;43.430;23.136;2023-08-08T01:16:11;5.15;;;1.33;;
46721;SDS011;32455;43.430;23.136;2023-08-08T01:18:58;1.40;;;1.30;;
46721;SDS011;32455;43.430;23.136;2023-08-08T01:21:44;3.40;;;1.38;;
46721;SDS011;32455;43.430;23.136;2023-08-08T01:24:33;3.00;;;1.30;;
46721;SDS011;32455;43.430;23.136;2023-08-08T01:27:22;1.35;;;1.23;;
46721;SDS011;32455;43.430;23.136;2023-08-08T01:30:07;2.97;;;1.45;;
46721;SDS011;32455;43.430;23.136;2023-08-08T01:32:53;1.00;;;0.80;;
46721;SDS011;32455;43.430;23.136;2023-08-08T01:35:39;1.25;;;1.15;;
46721;SDS011;32455;43.430;23.136;2023-08-08T01:41:23;1.40;;;1.30;;
46721;SDS011;32455;43.430;23.136;2023-08-08T01:44:09;1.63;;;1.27;;
46721;SDS011;32455;43.430;23.136;2023-08-08T01:46:56;1.30;;;1.10;;
46721;SDS011;32455;43.430;23.136;2023-08-08T01:49:41;1.52;;;1.25;;
46721;SDS011;32455;43.430;23.136;2023-08-08T01:52:26;5.90;;;1.25;;
46721;SDS011;32455;43.430;23.136;2023-08-08T01:55:12;2.58;;;1.20;;
46721;SDS011;32455;43.430;23.136;2023-08-08T01:57:57;1.13;;;1.08;;
46721;SDS011;32455;43.430;23.136;2023-08-08T02:00:43;2.50;;;1.40;;
46721;SDS011;32455;43.430;23.136;2023-08-08T02:03:29;1.02;;;1.00;;
46721;SDS011;32455;43.430;23.136;2023-08-08T02:06:14;1.10;;;1.00;;
46721;SDS011;32455;43.430;23.136;2023-08-08T02:09:00;1.13;;;1.10;;
46721;SDS011;32455;43.430;23.136;2023-08-08T02:11:45;1.10;;;1.00;;
46721;SDS011;32455;43.430;23.136;2023-08-08T02:14:30;0.93;;;0.93;;
46721;SDS011;32455;43.430;23.136;2023-08-08T02:17:16;1.30;;;1.20;;
46721;SDS011;32455;43.430;23.136;2023-08-08T02:20:01;1.20;;;1.10;;
46721;SDS011;32455;43.430;23.136;2023-08-08T02:22:48;1.95;;;1.55;;
46721;SDS011;32455;43.430;23.136;2023-08-08T02:25:33;1.30;;;1.15;;
46721;SDS011;32455;43.430;23.136;2023-08-08T02:28:18;3.75;;;1.25;;
46721;SDS011;32455;43.430;23.136;2023-08-08T02:31:04;1.15;;;1.05;;
46721;SDS011;32455;43.430;23.136;2023-08-08T02:33:49;1.35;;;0.70;;
46721;SDS011;32455;43.430;23.136;2023-08-08T02:36:35;3.60;;;0.63;;
46721;SDS011;32455;43.430;23.136;2023-08-08T02:39:20;0.98;;;0.60;;
46721;SDS011;32455;43.430;23.136;2023-08-08T02:42:06;1.67;;;0.60;;
46721;SDS011;32455;43.430;23.136;2023-08-08T02:44:51;2.92;;;0.80;;
46721;SDS011;32455;43.430;23.136;2023-08-08T02:47:36;2.63;;;0.80;;
46721;SDS011;32455;43.430;23.136;2023-08-08T02:50:21;0.80;;;0.80;;
46721;SDS011;32455;43.430;23.136;2023-08-08T02:53:07;0.80;;;0.80;;
46721;SDS011;32455;43.430;23.136;2023-08-08T02:55:55;2.88;;;0.70;;
46721;SDS011;32455;43.430;23.136;2023-08-08T02:58:41;5.30;;;1.00;;
46721;SDS011;32455;43.430;23.136;2023-08-08T03:01:25;1.67;;;0.90;;
46721;SDS011;32455;43.430;23.136;2023-08-08T03:04:10;3.15;;;1.10;;
46721;SDS011;32455;43.430;23.136;2023-08-08T03:06:55;2.17;;;1.40;;
46721;SDS011;32455;43.430;23.136;2023-08-08T03:09:41;2.35;;;1.38;;
46721;SDS011;32455;43.430;23.136;2023-08-08T03:12:26;1.50;;;1.40;;
46721;SDS011;32455;43.430;23.136;2023-08-08T03:15:11;2.65;;;1.27;;
46721;SDS011;32455;43.430;23.136;2023-08-08T03:17:56;1.30;;;1.20;;
46721;SDS011;32455;43.430;23.136;2023-08-08T03:20:42;1.55;;;1.05;;
46721;SDS011;32455;43.430;23.136;2023-08-08T03:23:27;1.38;;;0.95;;
46721;SDS011;32455;43.430;23.136;2023-08-08T03:26:13;1.00;;;0.80;;
46721;SDS011;32455;43.430;23.136;2023-08-08T03:28:57;1.20;;;0.80;;
46721;SDS011;32455;43.430;23.136;2023-08-08T03:31:43;3.45;;;0.98;;
46721;SDS011;32455;43.430;23.136;2023-08-08T03:34:28;3.78;;;1.27;;
46721;SDS011;32455;43.430;23.136;2023-08-08T03:37:14;0.95;;;0.95;;
46721;SDS011;32455;43.430;23.136;2023-08-08T03:39:59;3.35;;;1.10;;
46721;SDS011;32455;43.430;23.136;2023-08-08T03:42:44;1.17;;;1.05;;
46721;SDS011;32455;43.430;23.136;2023-08-08T03:45:30;2.45;;;1.20;;
46721;SDS011;32455;43.430;23.136;2023-08-08T03:48:15;0.98;;;0.93;;
46721;SDS011;32455;43.430;23.136;2023-08-08T03:51:00;1.95;;;0.93;;
46721;SDS011;32455;43.430;23.136;2023-08-08T03:53:45;1.02;;;0.60;;
46721;SDS011;32455;43.430;23.136;2023-08-08T03:56:31;2.58;;;0.60;;
46721;SDS011;32455;43.430;23.136;2023-08-08T03:59:16;1.27;;;0.75;;
46721;SDS011;32455;43.430;23.136;2023-08-08T04:02:01;1.77;;;0.63;;
46721;SDS011;32455;43.430;23.136;2023-08-08T04:04:47;0.65;;;0.65;;
46721;SDS011;32455;43.430;23.136;2023-08-08T04:07:32;2.30;;;0.85;;
46721;SDS011;32455;43.430;23.136;2023-08-08T04:10:18;1.58;;;0.88;;
46721;SDS011;32455;43.430;23.136;2023-08-08T04:13:03;0.80;;;0.80;;
46721;SDS011;32455;43.430;23.136;2023-08-08T04:15:48;3.92;;;0.70;;
46721;SDS011;32455;43.430;23.136;2023-08-08T04:18:36;2.00;;;0.70;;
46721;SDS011;32455;43.430;23.136;2023-08-08T04:21:21;1.73;;;0.88;;
46721;SDS011;32455;43.430;23.136;2023-08-08T04:24:08;1.10;;;0.77;;
46721;SDS011;32455;43.430;23.136;2023-08-08T04:26:53;1.00;;;0.80;;
46721;SDS011;32455;43.430;23.136;2023-08-08T04:29:38;0.80;;;0.80;;
46721;SDS011;32455;43.430;23.136;2023-08-08T04:32:23;0.77;;;0.77;;
46721;SDS011;32455;43.430;23.136;2023-08-08T04:35:08;1.27;;;0.80;;
46721;SDS011;32455;43.430;23.136;2023-08-08T04:37:54;0.80;;;0.80;;
46721;SDS011;32455;43.430;23.136;2023-08-08T04:40:38;2.00;;;0.93;;
46721;SDS011;32455;43.430;23.136;2023-08-08T04:43:23;0.80;;;0.80;;
46721;SDS011;32455;43.430;23.136;2023-08-08T04:46:08;0.90;;;0.90;;
46721;SDS011;32455;43.430;23.136;2023-08-08T04:48:54;1.17;;;0.90;;
46721;SDS011;32455;43.430;23.136;2023-08-08T04:51:40;0.82;;;0.82;;
46721;SDS011;32455;43.430;23.136;2023-08-08T04:54:25;0.80;;;0.80;;
46721;SDS011;32455;43.430;23.136;2023-08-08T04:57:11;0.80;;;0.80;;
46721;SDS011;32455;43.430;23.136;2023-08-08T04:59:57;2.25;;;0.80;;
46721;SDS011;32455;43.430;23.136;2023-08-08T05:02:42;0.80;;;0.80;;
46721;SDS011;32455;43.430;23.136;2023-08-08T05:05:27;0.95;;;0.95;;
46721;SDS011;32455;43.430;23.136;2023-08-08T05:08:13;0.77;;;0.77;;
46721;SDS011;32455;43.430;23.136;2023-08-08T05:10:59;2.88;;;0.80;;
46721;SDS011;32455;43.430;23.136;2023-08-08T05:13:44;0.80;;;0.80;;
46721;SDS011;32455;43.430;23.136;2023-08-08T05:16:29;0.77;;;0.77;;
46721;SDS011;32455;43.430;23.136;2023-08-08T05:19:15;0.80;;;0.80;;
46721;SDS011;32455;43.430;23.136;2023-08-08T05:22:00;0.77;;;0.77;;
46721;SDS011;32455;43.430;23.136;2023-08-08T05:24:45;1.40;;;0.68;;
46721;SDS011;32455;43.430;23.136;2023-08-08T05:27:31;1.95;;;0.70;;
46721;SDS011;32455;43.430;23.136;2023-08-08T05:30:16;1.27;;;0.70;;
46721;SDS011;32455;43.430;23.136;2023-08-08T05:33:01;2.90;;;0.68;;
46721;SDS011;32455;43.430;23.136;2023-08-08T05:35:47;0.80;;;0.80;;
46721;SDS011;32455;43.430;23.136;2023-08-08T05:38:32;2.70;;;0.80;;
46721;SDS011;32455;43.430;23.136;2023-08-08T05:41:17;0.63;;;0.63;;
46721;SDS011;32455;43.430;23.136;2023-08-08T05:44:03;0.52;;;0.50;;
46721;SDS011;32455;43.430;23.136;2023-08-08T05:46:49;0.57;;;0.57;;
46721;SDS011;32455;43.430;23.136;2023-08-08T05:49:34;1.35;;;0.70;;
46721;SDS011;32455;43.430;23.136;2023-08-08T05:52:20;1.13;;;1.02;;
46721;SDS011;32455;43.430;23.136;2023-08-08T05:55:06;0.70;;;0.70;;
46721;SDS011;32455;43.430;23.136;2023-08-08T05:57:52;0.90;;;0.60;;
46721;SDS011;32455;43.430;23.136;2023-08-08T06:00:37;0.70;;;0.70;;
46721;SDS011;32455;43.430;23.136;2023-08-08T06:03:23;0.60;;;0.60;;
46721;SDS011;32455;43.430;23.136;2023-08-08T06:06:08;0.77;;;0.63;;
46721;SDS011;32455;43.430;23.136;2023-08-08T06:08:53;0.85;;;0.60;;
46721;SDS011;32455;43.430;23.136;2023-08-08T06:11:39;2.55;;;0.60;;
46721;SDS011;32455;43.430;23.136;2023-08-08T06:14:24;1.80;;;0.75;;
46721;SDS011;32455;43.430;23.136;2023-08-08T06:17:10;2.28;;;0.65;;
46721;SDS011;32455;43.430;23.136;2023-08-08T06:19:54;0.80;;;0.63;;
46721;SDS011;32455;43.430;23.136;2023-08-08T06:22:41;0.80;;;0.80;;
46721;SDS011;32455;43.430;23.136;2023-08-08T06:25:27;1.95;;;0.88;;
46721;SDS011;32455;43.430;23.136;2023-08-08T06:28:13;0.75;;;0.75;;
46721;SDS011;32455;43.430;23.136;2023-08-08T06:30:58;2.15;;;0.60;;
46721;SDS011;32455;43.430;23.136;2023-08-08T06:33:44;2.03;;;0.90;;
46721;SDS011;32455;43.430;23.136;2023-08-08T06:36:29;0.90;;;0.77;;
46721;SDS011;32455;43.430;23.136;2023-08-08T06:39:14;1.77;;;0.90;;
46721;SDS011;32455;43.430;23.136;2023-08-08T06:42:00;1.85;;;0.90;;
46721;SDS011;32455;43.430;23.136;2023-08-08T06:44:45;1.52;;;0.80;;
46721;SDS011;32455;43.430;23.136;2023-08-08T06:47:30;1.50;;;0.90;;
46721;SDS011;32455;43.430;23.136;2023-08-08T06:50:15;0.80;;;0.80;;
46721;SDS011;32455;43.430;23.136;2023-08-08T06:53:01;1.27;;;1.15;;
46721;SDS011;32455;43.430;23.136;2023-08-08T06:55:47;1.40;;;1.30;;
46721;SDS011;32455;43.430;23.136;2023-08-08T06:58:33;1.40;;;1.30;;
46721;SDS011;32455;43.430;23.136;2023-08-08T07:01:18;3.60;;;1.52;;
46721;SDS011;32455;43.430;23.136;2023-08-08T07:04:03;2.33;;;1.20;;
46721;SDS011;32455;43.430;23.136;2023-08-08T07:06:49;1.63;;;1.30;;
46721;SDS011;32455;43.430;23.136;2023-08-08T07:09:34;2.55;;;1.50;;
46721;SDS011;32455;43.430;23.136;2023-08-08T07:12:19;1.42;;;1.33;;
46721;SDS011;32455;43.430;23.136;2023-08-08T07:15:06;2.65;;;2.05;;
46721;SDS011;32455;43.430;23.136;2023-08-08T07:17:52;1.23;;;1.10;;
46721;SDS011;32455;43.430;23.136;2023-08-08T07:20:37;1.33;;;1.20;;
46721;SDS011;32455;43.430;23.136;2023-08-08T07:23:24;1.73;;;1.20;;
46721;SDS011;32455;43.430;23.136;2023-08-08T07:26:09;1.30;;;1.25;;
46721;SDS011;32455;43.430;23.136;2023-08-08T07:28:56;2.55;;;1.15;;
46721;SDS011;32455;43.430;23.136;2023-08-08T07:31:41;3.83;;;1.42;;
46721;SDS011;32455;43.430;23.136;2023-08-08T07:34:27;1.65;;;1.10;;
46721;SDS011;32455;43.430;23.136;2023-08-08T07:37:13;0.93;;;0.90;;
46721;SDS011;32455;43.430;23.136;2023-08-08T07:39:59;0.93;;;0.90;;
46721;SDS011;32455;43.430;23.136;2023-08-08T07:42:47;1.05;;;0.80;;
46721;SDS011;32455;43.430;23.136;2023-08-08T07:45:33;1.67;;;0.82;;
46721;SDS011;32455;43.430;23.136;2023-08-08T07:48:19;1.08;;;0.77;;
46721;SDS011;32455;43.430;23.136;2023-08-08T07:51:04;1.13;;;0.85;;
46721;SDS011;32455;43.430;23.136;2023-08-08T07:53:49;0.60;;;0.60;;
46721;SDS011;32455;43.430;23.136;2023-08-08T07:56:34;0.60;;;0.60;;
46721;SDS011;32455;43.430;23.136;2023-08-08T07:59:19;0.70;;;0.70;;
46721;SDS011;32455;43.430;23.136;2023-08-08T08:02:05;0.80;;;0.80;;
46721;SDS011;32455;43.430;23.136;2023-08-08T08:04:50;0.50;;;0.50;;
46721;SDS011;32455;43.430;23.136;2023-08-08T08:07:36;0.77;;;0.70;;
46721;SDS011;32455;43.430;23.136;2023-08-08T08:10:23;0.60;;;0.60;;
46721;SDS011;32455;43.430;23.136;2023-08-08T08:13:08;0.50;;;0.50;;
46721;SDS011;32455;43.430;23.136;2023-08-08T08:15:55;1.20;;;0.68;;
46721;SDS011;32455;43.430;23.136;2023-08-08T08:18:41;0.70;;;0.70;;
46721;SDS011;32455;43.430;23.136;2023-08-08T08:21:27;0.55;;;0.55;;
46721;SDS011;32455;43.430;23.136;2023-08-08T08:24:12;2.50;;;0.70;;
46721;SDS011;32455;43.430;23.136;2023-08-08T08:26:58;0.70;;;0.70;;
46721;SDS011;32455;43.430;23.136;2023-08-08T08:29:43;0.40;;;0.40;;
46721;SDS011;32455;43.430;23.136;2023-08-08T08:32:31;0.60;;;0.60;;
46721;SDS011;32455;43.430;23.136;2023-08-08T08:35:17;0.55;;;0.55;;
46721;SDS011;32455;43.430;23.136;2023-08-08T08:38:03;0.50;;;0.50;;
46721;SDS011;32455;43.430;23.136;2023-08-08T08:40:49;0.60;;;0.60;;
46721;SDS011;32455;43.430;23.136;2023-08-08T08:43:38;0.52;;;0.52;;
46721;SDS011;32455;43.430;23.136;2023-08-08T08:46:24;0.47;;;0.47;;
46721;SDS011;32455;43.430;23.136;2023-08-08T08:49:11;1.42;;;0.73;;
46721;SDS011;32455;43.430;23.136;2023-08-08T08:52:00;0.50;;;0.50;;
46721;SDS011;32455;43.430;23.136;2023-08-08T08:54:46;0.60;;;0.60;;
46721;SDS011;32455;43.430;23.136;2023-08-08T08:57:31;0.60;;;0.60;;
46721;SDS011;32455;43.430;23.136;2023-08-08T09:00:17;2.40;;;0.80;;
46721;SDS011;32455;43.430;23.136;2023-08-08T09:03:03;0.60;;;0.60;;
46721;SDS011;32455;43.430;23.136;2023-08-08T09:05:49;1.00;;;0.80;;
46721;SDS011;32455;43.430;23.136;2023-08-08T09:08:35;1.20;;;0.65;;
46721;SDS011;32455;43.430;23.136;2023-08-08T09:11:21;0.55;;;0.55;;
46721;SDS011;32455;43.430;23.136;2023-08-08T09:14:16;3.80;;;0.70;;
46721;SDS011;32455;43.430;23.136;2023-08-08T09:17:11;0.80;;;0.77;;
46721;SDS011;32455;43.430;23.136;2023-08-08T09:20:00;1.10;;;0.80;;
46721;SDS011;32455;43.430;23.136;2023-08-08T09:22:45;1.60;;;0.90;;
46721;SDS011;32455;43.430;23.136;2023-08-08T09:25:31;0.80;;;0.80;;
46721;SDS011;32455;43.430;23.136;2023-08-08T09:28:16;1.95;;;0.95;;
46721;SDS011;32455;43.430;23.136;2023-08-08T09:31:02;2.20;;;1.05;;
46721;SDS011;32455;43.430;23.136;2023-08-08T09:33:48;0.93;;;0.90;;
46721;SDS011;32455;43.430;23.136;2023-08-08T09:36:35;0.90;;;0.90;;
46721;SDS011;32455;43.430;23.136;2023-08-08T09:39:21;1.83;;;0.90;;
46721;SDS011;32455;43.430;23.136;2023-08-08T09:42:07;0.82;;;0.70;;
46721;SDS011;32455;43.430;23.136;2023-08-08T09:44:53;0.80;;;0.77;;
46721;SDS011;32455;43.430;23.136;2023-08-08T09:47:40;1.20;;;1.10;;
46721;SDS011;32455;43.430;23.136;2023-08-08T09:50:26;0.82;;;0.82;;
46721;SDS011;32455;43.430;23.136;2023-08-08T09:53:14;0.80;;;0.80;;
46721;SDS011;32455;43.430;23.136;2023-08-08T09:56:01;1.13;;;0.82;;
46721;SDS011;32455;43.430;23.136;2023-08-08T09:58:49;0.70;;;0.70;;
46721;SDS011;32455;43.430;23.136;2023-08-08T10:01:35;3.92;;;0.85;;
46721;SDS011;32455;43.430;23.136;2023-08-08T10:04:24;0.70;;;0.70;;
46721;SDS011;32455;43.430;23.136;2023-08-08T10:07:09;0.80;;;0.80;;
46721;SDS011;32455;43.430;23.136;2023-08-08T10:09:54;1.10;;;1.00;;
46721;SDS011;32455;43.430;23.136;2023-08-08T10:12:39;0.85;;;0.85;;
46721;SDS011;32455;43.430;23.136;2023-08-08T10:15:25;0.73;;;0.73;;
46721;SDS011;32455;43.430;23.136;2023-08-08T10:18:12;1.02;;;0.80;;
46721;SDS011;32455;43.430;23.136;2023-08-08T10:20:58;0.57;;;0.57;;
46721;SDS011;32455;43.430;23.136;2023-08-08T10:23:44;1.58;;;0.77;;
46721;SDS011;32455;43.430;23.136;2023-08-08T10:26:30;1.90;;;0.60;;
46721;SDS011;32455;43.430;23.136;2023-08-08T10:29:18;0.70;;;0.70;;
46721;SDS011;32455;43.430;23.136;2023-08-08T10:32:05;0.50;;;0.50;;
46721;SDS011;32455;43.430;23.136;2023-08-08T10:34:54;0.77;;;0.77;;
46721;SDS011;32455;43.430;23.136;2023-08-08T10:37:51;0.70;;;0.63;;
46721;SDS011;32455;43.430;23.136;2023-08-08T10:40:42;0.77;;;0.63;;
46721;SDS011;32455;43.430;23.136;2023-08-08T10:43:28;0.50;;;0.50;;
46721;SDS011;32455;43.430;23.136;2023-08-08T10:46:21;1.67;;;0.60;;
46721;SDS011;32455;43.430;23.136;2023-08-08T10:49:12;0.47;;;0.47;;
46721;SDS011;32455;43.430;23.136;2023-08-08T10:52:02;0.60;;;0.60;;
46721;SDS011;32455;43.430;23.136;2023-08-08T10:54:54;0.60;;;0.60;;
46721;SDS011;32455;43.430;23.136;2023-08-08T10:57:39;0.70;;;0.60;;
46721;SDS011;32455;43.430;23.136;2023-08-08T11:00:27;1.85;;;0.60;;
46721;SDS011;32455;43.430;23.136;2023-08-08T11:03:15;0.40;;;0.40;;
46721;SDS011;32455;43.430;23.136;2023-08-08T11:06:01;3.40;;;0.60;;
46721;SDS011;32455;43.430;23.136;2023-08-08T11:08:48;0.70;;;0.70;;
46721;SDS011;32455;43.430;23.136;2023-08-08T11:11:39;1.08;;;0.55;;
46721;SDS011;32455;43.430;23.136;2023-08-08T11:14:26;0.60;;;0.60;;
46721;SDS011;32455;43.430;23.136;2023-08-08T11:17:11;2.30;;;0.80;;
46721;SDS011;32455;43.430;23.136;2023-08-08T11:19:57;0.60;;;0.60;;
46721;SDS011;32455;43.430;23.136;2023-08-08T11:22:42;1.05;;;0.60;;
46721;SDS011;32455;43.430;23.136;2023-08-08T11:25:28;1.45;;;0.88;;
46721;SDS011;32455;43.430;23.136;2023-08-08T11:28:14;0.60;;;0.60;;
46721;SDS011;32455;43.430;23.136;2023-08-08T11:30:59;0.93;;;0.68;;
46721;SDS011;32455;43.430;23.136;2023-08-08T11:33:47;0.70;;;0.57;;
46721;SDS011;32455;43.430;23.136;2023-08-08T11:36:33;1.48;;;0.50;;
46721;SDS011;32455;43.430;23.136;2023-08-08T11:39:20;0.50;;;0.50;;
46721;SDS011;32455;43.430;23.136;2023-08-08T11:42:05;1.83;;;0.70;;
46721;SDS011;32455;43.430;23.136;2023-08-08T11:44:51;0.50;;;0.50;;
46721;SDS011;32455;43.430;23.136;2023-08-08T11:47:37;0.80;;;0.80;;
46721;SDS011;32455;43.430;23.136;2023-08-08T11:50:25;0.95;;;0.57;;
46721;SDS011;32455;43.430;23.136;2023-08-08T11:53:12;0.60;;;0.60;;
46721;SDS011;32455;43.430;23.136;2023-08-08T11:55:57;1.00;;;0.80;;
46721;SDS011;32455;43.430;23.136;2023-08-08T11:58:45;1.00;;;0.77;;
46721;SDS011;32455;43.430;23.136;2023-08-08T12:01:32;1.10;;;0.50;;
46721;SDS011;32455;43.430;23.136;2023-08-08T12:04:19;1.45;;;0.50;;
46721;SDS011;32455;43.430;23.136;2023-08-08T12:07:05;0.77;;;0.77;;
46721;SDS011;32455;43.430;23.136;2023-08-08T12:09:52;1.02;;;0.77;;
46721;SDS011;32455;43.430;23.136;2023-08-08T12:12:37;1.92;;;0.80;;
46721;SDS011;32455;43.430;23.136;2023-08-08T12:15:22;0.70;;;0.70;;
46721;SDS011;32455;43.430;23.136;2023-08-08T12:18:08;0.55;;;0.55;;
46721;SDS011;32455;43.430;23.136;2023-08-08T12:20:53;0.82;;;0.68;;
46721;SDS011;32455;43.430;23.136;2023-08-08T12:23:39;0.70;;;0.70;;
46721;SDS011;32455;43.430;23.136;2023-08-08T12:26:24;0.60;;;0.60;;
46721;SDS011;32455;43.430;23.136;2023-08-08T12:29:09;0.70;;;0.70;;
46721;SDS011;32455;43.430;23.136;2023-08-08T12:31:54;0.95;;;0.70;;
46721;SDS011;32455;43.430;23.136;2023-08-08T12:34:40;0.85;;;0.70;;
46721;SDS011;32455;43.430;23.136;2023-08-08T12:37:25;1.85;;;0.70;;
46721;SDS011;32455;43.430;23.136;2023-08-08T12:40:10;0.75;;;0.75;;
46721;SDS011;32455;43.430;23.136;2023-08-08T12:42:56;0.70;;;0.70;;
46721;SDS011;32455;43.430;23.136;2023-08-08T12:45:41;1.70;;;0.88;;
46721;SDS011;32455;43.430;23.136;2023-08-08T12:48:26;0.80;;;0.80;;
46721;SDS011;32455;43.430;23.136;2023-08-08T12:51:11;0.80;;;0.80;;
46721;SDS011;32455;43.430;23.136;2023-08-08T12:53:57;0.68;;;0.60;;
46721;SDS011;32455;43.430;23.136;2023-08-08T12:56:42;4.07;;;2.38;;
46721;SDS011;32455;43.430;23.136;2023-08-08T12:59:27;2.72;;;0.75;;
46721;SDS011;32455;43.430;23.136;2023-08-08T13:02:13;1.00;;;1.00;;
46721;SDS011;32455;43.430;23.136;2023-08-08T13:04:58;0.95;;;0.80;;
46721;SDS011;32455;43.430;23.136;2023-08-08T13:07:43;3.80;;;1.10;;
46721;SDS011;32455;43.430;23.136;2023-08-08T13:10:28;0.80;;;0.80;;
46721;SDS011;32455;43.430;23.136;2023-08-08T13:13:15;1.00;;;0.90;;
46721;SDS011;32455;43.430;23.136;2023-08-08T13:16:01;1.10;;;1.10;;
46721;SDS011;32455;43.430;23.136;2023-08-08T13:18:46;0.85;;;0.85;;
46721;SDS011;32455;43.430;23.136;2023-08-08T13:21:32;1.05;;;0.70;;
46721;SDS011;32455;43.430;23.136;2023-08-08T13:24:17;1.17;;;1.08;;
46721;SDS011;32455;43.430;23.136;2023-08-08T13:27:03;1.63;;;0.63;;
46721;SDS011;32455;43.430;23.136;2023-08-08T13:29:50;0.80;;;0.80;;
46721;SDS011;32455;43.430;23.136;2023-08-08T13:32:37;1.27;;;1.05;;
46721;SDS011;32455;43.430;23.136;2023-08-08T13:35:23;1.67;;;0.80;;
46721;SDS011;32455;43.430;23.136;2023-08-08T13:38:09;1.58;;;0.90;;
46721;SDS011;32455;43.430;23.136;2023-08-08T13:40:58;0.85;;;0.73;;
46721;SDS011;32455;43.430;23.136;2023-08-08T13:43:45;3.58;;;0.85;;
46721;SDS011;32455;43.430;23.136;2023-08-08T13:46:30;0.88;;;0.88;;
46721;SDS011;32455;43.430;23.136;2023-08-08T13:49:15;0.70;;;0.70;;
46721;SDS011;32455;43.430;23.136;2023-08-08T13:52:01;0.93;;;0.93;;
46721;SDS011;32455;43.430;23.136;2023-08-08T13:54:47;1.15;;;0.68;;
46721;SDS011;32455;43.430;23.136;2023-08-08T13:57:32;1.35;;;0.90;;
46721;SDS011;32455;43.430;23.136;2023-08-08T14:00:17;1.48;;;0.70;;
46721;SDS011;32455;43.430;23.136;2023-08-08T14:03:02;0.98;;;0.82;;
46721;SDS011;32455;43.430;23.136;2023-08-08T14:05:49;0.70;;;0.70;;
46721;SDS011;32455;43.430;23.136;2023-08-08T14:08:40;2.92;;;0.90;;
46721;SDS011;32455;43.430;23.136;2023-08-08T14:11:25;0.75;;;0.70;;
46721;SDS011;32455;43.430;23.136;2023-08-08T14:14:11;1.10;;;0.70;;
46721;SDS011;32455;43.430;23.136;2023-08-08T14:16:56;1.30;;;0.70;;
46721;SDS011;32455;43.430;23.136;2023-08-08T14:19:41;0.60;;;0.60;;
46721;SDS011;32455;43.430;23.136;2023-08-08T14:22:26;0.60;;;0.60;;
46721;SDS011;32455;43.430;23.136;2023-08-08T14:25:11;0.98;;;0.80;;
46721;SDS011;32455;43.430;23.136;2023-08-08T14:27:55;0.70;;;0.70;;
46721;SDS011;32455;43.430;23.136;2023-08-08T14:30:46;0.65;;;0.63;;
46721;SDS011;32455;43.430;23.136;2023-08-08T14:33:31;1.00;;;0.90;;
46721;SDS011;32455;43.430;23.136;2023-08-08T14:36:18;2.42;;;0.70;;
46721;SDS011;32455;43.430;23.136;2023-08-08T14:39:03;0.98;;;0.98;;
46721;SDS011;32455;43.430;23.136;2023-08-08T14:41:49;0.80;;;0.80;;
46721;SDS011;32455;43.430;23.136;2023-08-08T14:44:37;0.77;;;0.77;;
46721;SDS011;32455;43.430;23.136;2023-08-08T14:47:22;2.03;;;0.80;;
46721;SDS011;32455;43.430;23.136;2023-08-08T14:50:08;3.33;;;0.70;;
46721;SDS011;32455;43.430;23.136;2023-08-08T14:52:54;0.70;;;0.63;;
46721;SDS011;32455;43.430;23.136;2023-08-08T14:55:39;0.70;;;0.70;;
46721;SDS011;32455;43.430;23.136;2023-08-08T14:58:25;0.75;;;0.70;;
46721;SDS011;32455;43.430;23.136;2023-08-08T15:01:10;0.85;;;0.60;;
46721;SDS011;32455;43.430;23.136;2023-08-08T15:03:56;1.67;;;0.52;;
46721;SDS011;32455;43.430;23.136;2023-08-08T15:06:42;0.73;;;0.60;;
46721;SDS011;32455;43.430;23.136;2023-08-08T15:09:27;0.60;;;0.60;;
46721;SDS011;32455;43.430;23.136;2023-08-08T15:12:16;2.22;;;0.63;;
46721;SDS011;32455;43.430;23.136;2023-08-08T15:15:02;2.15;;;0.70;;
46721;SDS011;32455;43.430;23.136;2023-08-08T15:17:50;1.25;;;0.47;;
46721;SDS011;32455;43.430;23.136;2023-08-08T15:20:36;0.68;;;0.60;;
46721;SDS011;32455;43.430;23.136;2023-08-08T15:23:22;0.50;;;0.50;;
46721;SDS011;32455;43.430;23.136;2023-08-08T15:26:07;2.33;;;1.20;;
46721;SDS011;32455;43.430;23.136;2023-08-08T15:28:53;0.77;;;0.63;;
46721;SDS011;32455;43.430;23.136;2023-08-08T15:31:39;0.75;;;0.60;;
46721;SDS011;32455;43.430;23.136;2023-08-08T15:34:24;0.55;;;0.43;;
46721;SDS011;32455;43.430;23.136;2023-08-08T15:37:10;2.05;;;0.52;;
46721;SDS011;32455;43.430;23.136;2023-08-08T15:39:56;0.50;;;0.50;;
46721;SDS011;32455;43.430;23.136;2023-08-08T15:42:43;2.92;;;0.68;;
46721;SDS011;32455;43.430;23.136;2023-08-08T15:45:29;0.60;;;0.60;;
46721;SDS011;32455;43.430;23.136;2023-08-08T15:48:14;0.52;;;0.52;;
46721;SDS011;32455;43.430;23.136;2023-08-08T15:51:01;0.60;;;0.60;;
46721;SDS011;32455;43.430;23.136;2023-08-08T15:53:46;0.93;;;0.52;;
46721;SDS011;32455;43.430;23.136;2023-08-08T15:56:32;1.92;;;0.90;;
46721;SDS011;32455;43.430;23.136;2023-08-08T15:59:18;0.80;;;0.80;;
46721;SDS011;32455;43.430;23.136;2023-08-08T16:02:03;1.10;;;0.90;;
46721;SDS011;32455;43.430;23.136;2023-08-08T16:04:48;0.90;;;0.90;;
46721;SDS011;32455;43.430;23.136;2023-08-08T16:07:34;0.90;;;0.90;;
46721;SDS011;32455;43.430;23.136;2023-08-08T16:10:19;0.90;;;0.90;;
46721;SDS011;32455;43.430;23.136;2023-08-08T16:13:03;2.28;;;1.17;;
46721;SDS011;32455;43.430;23.136;2023-08-08T16:15:48;1.48;;;1.10;;
46721;SDS011;32455;43.430;23.136;2023-08-08T16:18:33;7.13;;;1.23;;
46721;SDS011;32455;43.430;23.136;2023-08-08T16:21:18;1.85;;;1.00;;
46721;SDS011;32455;43.430;23.136;2023-08-08T16:24:03;2.25;;;1.02;;
46721;SDS011;32455;43.430;23.136;2023-08-08T16:26:49;1.50;;;1.40;;
46721;SDS011;32455;43.430;23.136;2023-08-08T16:29:40;1.40;;;1.30;;